sensor_id;sensor_type;location;lat;lon;timestamp;P1;durP1;ratioP1;P2;durP2;ratioP2
18702;SDS011;9481;48.796;9.210;2022-10-20T00:01:26;7.23;;;6.13;;
18702;SDS011;9481;48.796;9.210;2022-10-20T00:03:53;6.70;;;5.77;;
18702;SDS011;9481;48.796;9.210;2022-10-20T00:06:21;7.77;;;6.20;;
18702;SDS011;9481;48.796;9.210;2022-10-20T00:08:53;8.37;;;6.43;;
18702;SDS011;9481;48.796;9.210;2022-10-20T00:11:22;8.13;;;6.60;;
18702;SDS011;9481;48.796;9.210;2022-10-20T00:13:50;7.43;;;6.33;;
18702;SDS011;9481;48.796;9.210;2022-10-20T00:16:19;8.50;;;6.83;;
18702;SDS011;9481;48.796;9.210;2022-10-20T00:18:46;10.40;;;6.40;;
18702;SDS011;9481;48.796;9.210;2022-10-20T00:21:16;8.40;;;6.97;;
18702;SDS011;9481;48.796;9.210;2022-10-20T00:23:45;9.07;;;7.27;;
18702;SDS011;9481;48.796;9.210;2022-10-20T00:26:13;9.20;;;6.60;;
18702;SDS011;9481;48.796;9.210;2022-10-20T00:28:44;9.53;;;7.40;;
18702;SDS011;9481;48.796;9.210;2022-10-20T00:31:11;7.70;;;6.47;;
18702;SDS011;9481;48.796;9.210;2022-10-20T00:33:37;8.60;;;6.80;;
18702;SDS011;9481;48.796;9.210;2022-10-20T00:36:05;10.17;;;7.33;;
18702;SDS011;9481;48.796;9.210;2022-10-20T00:38:35;9.77;;;7.40;;
18702;SDS011;9481;48.796;9.210;2022-10-20T00:41:01;11.27;;;6.93;;
18702;SDS011;9481;48.796;9.210;2022-10-20T00:43:41;11.80;;;6.93;;
18702;SDS011;9481;48.796;9.210;2022-10-20T00:46:13;10.37;;;6.77;;
18702;SDS011;9481;48.796;9.210;2022-10-20T00:48:46;10.47;;;7.57;;
18702;SDS011;9481;48.796;9.210;2022-10-20T00:51:17;12.20;;;7.70;;
18702;SDS011;9481;48.796;9.210;2022-10-20T00:53:49;10.27;;;7.60;;
18702;SDS011;9481;48.796;9.210;2022-10-20T00:56:19;10.47;;;7.67;;
18702;SDS011;9481;48.796;9.210;2022-10-20T00:58:46;12.73;;;7.90;;
18702;SDS011;9481;48.796;9.210;2022-10-20T01:01:14;9.73;;;6.83;;
18702;SDS011;9481;48.796;9.210;2022-10-20T01:03:44;10.90;;;7.37;;
18702;SDS011;9481;48.796;9.210;2022-10-20T01:06:17;9.10;;;7.20;;
18702;SDS011;9481;48.796;9.210;2022-10-20T01:08:46;10.40;;;7.20;;
18702;SDS011;9481;48.796;9.210;2022-10-20T01:14:53;8.63;;;6.70;;
18702;SDS011;9481;48.796;9.210;2022-10-20T01:29:18;7.70;;;6.87;;
18702;SDS011;9481;48.796;9.210;2022-10-20T01:32:11;12.20;;;7.50;;
18702;SDS011;9481;48.796;9.210;2022-10-20T01:37:46;10.53;;;7.30;;
18702;SDS011;9481;48.796;9.210;2022-10-20T01:40:49;9.33;;;7.50;;
18702;SDS011;9481;48.796;9.210;2022-10-20T01:43:27;10.20;;;7.37;;
18702;SDS011;9481;48.796;9.210;2022-10-20T01:45:59;8.93;;;7.03;;
18702;SDS011;9481;48.796;9.210;2022-10-20T01:48:28;9.43;;;7.13;;
18702;SDS011;9481;48.796;9.210;2022-10-20T01:50:58;9.43;;;7.00;;
18702;SDS011;9481;48.796;9.210;2022-10-20T01:53:27;9.30;;;7.57;;
18702;SDS011;9481;48.796;9.210;2022-10-20T01:55:53;10.63;;;7.33;;
18702;SDS011;9481;48.796;9.210;2022-10-20T02:01:12;11.90;;;7.67;;
18702;SDS011;9481;48.796;9.210;2022-10-20T02:03:57;9.83;;;7.60;;
18702;SDS011;9481;48.796;9.210;2022-10-20T02:06:43;10.60;;;7.40;;
18702;SDS011;9481;48.796;9.210;2022-10-20T02:09:48;11.03;;;7.17;;
18702;SDS011;9481;48.796;9.210;2022-10-20T02:12:19;9.83;;;7.17;;
18702;SDS011;9481;48.796;9.210;2022-10-20T02:14:52;10.10;;;7.23;;
18702;SDS011;9481;48.796;9.210;2022-10-20T02:17:19;9.57;;;7.00;;
18702;SDS011;9481;48.796;9.210;2022-10-20T02:19:46;13.27;;;7.83;;
18702;SDS011;9481;48.796;9.210;2022-10-20T02:22:16;9.63;;;7.37;;
18702;SDS011;9481;48.796;9.210;2022-10-20T02:24:44;10.53;;;7.10;;
18702;SDS011;9481;48.796;9.210;2022-10-20T02:27:21;10.23;;;6.87;;
18702;SDS011;9481;48.796;9.210;2022-10-20T02:30:01;10.33;;;7.03;;
18702;SDS011;9481;48.796;9.210;2022-10-20T02:32:35;9.80;;;7.20;;
18702;SDS011;9481;48.796;9.210;2022-10-20T02:35:05;11.90;;;7.33;;
18702;SDS011;9481;48.796;9.210;2022-10-20T02:37:36;10.70;;;7.83;;
18702;SDS011;9481;48.796;9.210;2022-10-20T02:40:02;12.20;;;7.97;;
18702;SDS011;9481;48.796;9.210;2022-10-20T02:42:28;9.30;;;7.47;;
18702;SDS011;9481;48.796;9.210;2022-10-20T02:44:54;11.47;;;7.97;;
18702;SDS011;9481;48.796;9.210;2022-10-20T02:47:20;9.47;;;7.40;;
18702;SDS011;9481;48.796;9.210;2022-10-20T02:49:46;13.23;;;8.50;;
18702;SDS011;9481;48.796;9.210;2022-10-20T02:52:12;10.13;;;7.37;;
18702;SDS011;9481;48.796;9.210;2022-10-20T02:54:39;9.03;;;7.30;;
18702;SDS011;9481;48.796;9.210;2022-10-20T02:57:04;11.23;;;8.47;;
18702;SDS011;9481;48.796;9.210;2022-10-20T02:59:30;11.47;;;7.43;;
18702;SDS011;9481;48.796;9.210;2022-10-20T03:01:56;11.00;;;7.83;;
18702;SDS011;9481;48.796;9.210;2022-10-20T03:04:22;10.73;;;8.20;;
18702;SDS011;9481;48.796;9.210;2022-10-20T03:06:47;11.30;;;7.73;;
18702;SDS011;9481;48.796;9.210;2022-10-20T03:09:13;10.47;;;6.97;;
18702;SDS011;9481;48.796;9.210;2022-10-20T03:11:39;12.20;;;7.13;;
18702;SDS011;9481;48.796;9.210;2022-10-20T03:14:04;13.33;;;7.70;;
18702;SDS011;9481;48.796;9.210;2022-10-20T03:16:30;9.67;;;8.13;;
18702;SDS011;9481;48.796;9.210;2022-10-20T03:18:56;9.93;;;7.70;;
18702;SDS011;9481;48.796;9.210;2022-10-20T03:21:21;11.03;;;8.10;;
18702;SDS011;9481;48.796;9.210;2022-10-20T03:23:47;10.57;;;8.10;;
18702;SDS011;9481;48.796;9.210;2022-10-20T03:26:13;10.37;;;8.03;;
18702;SDS011;9481;48.796;9.210;2022-10-20T03:28:39;11.93;;;8.53;;
18702;SDS011;9481;48.796;9.210;2022-10-20T03:31:05;10.40;;;7.83;;
18702;SDS011;9481;48.796;9.210;2022-10-20T03:33:31;13.73;;;8.33;;
18702;SDS011;9481;48.796;9.210;2022-10-20T03:35:57;11.07;;;8.20;;
18702;SDS011;9481;48.796;9.210;2022-10-20T03:38:23;10.33;;;8.20;;
18702;SDS011;9481;48.796;9.210;2022-10-20T03:40:49;10.57;;;8.07;;
18702;SDS011;9481;48.796;9.210;2022-10-20T03:43:14;11.03;;;7.87;;
18702;SDS011;9481;48.796;9.210;2022-10-20T03:45:41;11.37;;;8.63;;
18702;SDS011;9481;48.796;9.210;2022-10-20T03:48:07;12.83;;;8.50;;
18702;SDS011;9481;48.796;9.210;2022-10-20T03:50:33;12.70;;;8.67;;
18702;SDS011;9481;48.796;9.210;2022-10-20T03:53:02;13.70;;;9.20;;
18702;SDS011;9481;48.796;9.210;2022-10-20T03:55:27;15.97;;;8.97;;
18702;SDS011;9481;48.796;9.210;2022-10-20T03:57:53;11.10;;;8.37;;
18702;SDS011;9481;48.796;9.210;2022-10-20T04:00:19;13.33;;;8.53;;
18702;SDS011;9481;48.796;9.210;2022-10-20T04:02:45;11.27;;;8.87;;
18702;SDS011;9481;48.796;9.210;2022-10-20T04:05:16;13.37;;;8.60;;
18702;SDS011;9481;48.796;9.210;2022-10-20T04:07:44;11.83;;;8.83;;
18702;SDS011;9481;48.796;9.210;2022-10-20T04:10:11;13.67;;;7.87;;
18702;SDS011;9481;48.796;9.210;2022-10-20T04:12:38;13.00;;;8.70;;
18702;SDS011;9481;48.796;9.210;2022-10-20T04:15:04;13.07;;;8.33;;
18702;SDS011;9481;48.796;9.210;2022-10-20T04:17:32;10.70;;;7.53;;
18702;SDS011;9481;48.796;9.210;2022-10-20T04:19:58;10.33;;;8.20;;
18702;SDS011;9481;48.796;9.210;2022-10-20T04:22:23;13.00;;;8.20;;
18702;SDS011;9481;48.796;9.210;2022-10-20T04:24:49;10.87;;;7.73;;
18702;SDS011;9481;48.796;9.210;2022-10-20T04:27:15;11.60;;;8.53;;
18702;SDS011;9481;48.796;9.210;2022-10-20T04:29:41;13.83;;;8.40;;
18702;SDS011;9481;48.796;9.210;2022-10-20T04:32:06;12.00;;;8.03;;
18702;SDS011;9481;48.796;9.210;2022-10-20T04:34:32;12.17;;;8.70;;
18702;SDS011;9481;48.796;9.210;2022-10-20T04:36:58;14.30;;;8.80;;
18702;SDS011;9481;48.796;9.210;2022-10-20T04:39:23;13.83;;;8.47;;
18702;SDS011;9481;48.796;9.210;2022-10-20T04:41:50;12.83;;;9.47;;
18702;SDS011;9481;48.796;9.210;2022-10-20T04:44:16;11.87;;;9.20;;
18702;SDS011;9481;48.796;9.210;2022-10-20T04:46:41;12.70;;;9.70;;
18702;SDS011;9481;48.796;9.210;2022-10-20T04:49:08;14.30;;;8.63;;
18702;SDS011;9481;48.796;9.210;2022-10-20T04:51:33;13.07;;;9.53;;
18702;SDS011;9481;48.796;9.210;2022-10-20T04:53:59;12.20;;;9.07;;
18702;SDS011;9481;48.796;9.210;2022-10-20T04:56:25;13.47;;;9.07;;
18702;SDS011;9481;48.796;9.210;2022-10-20T04:58:52;13.90;;;9.53;;
18702;SDS011;9481;48.796;9.210;2022-10-20T05:01:21;13.97;;;9.37;;
18702;SDS011;9481;48.796;9.210;2022-10-20T05:03:51;15.67;;;9.93;;
18702;SDS011;9481;48.796;9.210;2022-10-20T05:06:18;15.20;;;9.13;;
18702;SDS011;9481;48.796;9.210;2022-10-20T05:08:49;12.90;;;9.27;;
18702;SDS011;9481;48.796;9.210;2022-10-20T05:11:18;12.33;;;8.80;;
18702;SDS011;9481;48.796;9.210;2022-10-20T05:13:46;11.33;;;8.40;;
18702;SDS011;9481;48.796;9.210;2022-10-20T05:16:12;14.23;;;8.53;;
18702;SDS011;9481;48.796;9.210;2022-10-20T05:18:41;12.13;;;8.37;;
18702;SDS011;9481;48.796;9.210;2022-10-20T05:21:12;11.13;;;8.63;;
18702;SDS011;9481;48.796;9.210;2022-10-20T05:23:40;12.70;;;8.53;;
18702;SDS011;9481;48.796;9.210;2022-10-20T05:26:08;12.50;;;8.97;;
18702;SDS011;9481;48.796;9.210;2022-10-20T05:28:43;12.17;;;8.93;;
18702;SDS011;9481;48.796;9.210;2022-10-20T05:31:12;16.47;;;9.50;;
18702;SDS011;9481;48.796;9.210;2022-10-20T05:33:42;12.10;;;8.73;;
18702;SDS011;9481;48.796;9.210;2022-10-20T05:36:11;15.27;;;9.20;;
18702;SDS011;9481;48.796;9.210;2022-10-20T05:38:39;12.07;;;8.87;;
18702;SDS011;9481;48.796;9.210;2022-10-20T05:41:09;14.40;;;9.37;;
18702;SDS011;9481;48.796;9.210;2022-10-20T05:43:38;8.50;;;6.43;;
18702;SDS011;9481;48.796;9.210;2022-10-20T05:46:04;9.07;;;6.33;;
18702;SDS011;9481;48.796;9.210;2022-10-20T05:48:32;9.47;;;6.93;;
18702;SDS011;9481;48.796;9.210;2022-10-20T05:51:08;12.77;;;6.90;;
18702;SDS011;9481;48.796;9.210;2022-10-20T05:53:39;9.60;;;7.20;;
18702;SDS011;9481;48.796;9.210;2022-10-20T05:56:07;9.90;;;7.17;;
18702;SDS011;9481;48.796;9.210;2022-10-20T05:58:35;12.57;;;7.73;;
18702;SDS011;9481;48.796;9.210;2022-10-20T06:01:05;11.60;;;7.37;;
18702;SDS011;9481;48.796;9.210;2022-10-20T06:03:33;11.07;;;7.50;;
18702;SDS011;9481;48.796;9.210;2022-10-20T06:06:00;11.00;;;7.37;;
18702;SDS011;9481;48.796;9.210;2022-10-20T06:08:30;9.97;;;7.27;;
18702;SDS011;9481;48.796;9.210;2022-10-20T06:11:01;10.43;;;7.60;;
18702;SDS011;9481;48.796;9.210;2022-10-20T06:13:32;11.03;;;7.73;;
18702;SDS011;9481;48.796;9.210;2022-10-20T06:16:06;12.23;;;8.37;;
18702;SDS011;9481;48.796;9.210;2022-10-20T06:18:35;13.37;;;8.00;;
18702;SDS011;9481;48.796;9.210;2022-10-20T06:21:04;13.03;;;8.00;;
18702;SDS011;9481;48.796;9.210;2022-10-20T06:23:34;11.00;;;7.20;;
18702;SDS011;9481;48.796;9.210;2022-10-20T06:26:00;10.73;;;8.00;;
18702;SDS011;9481;48.796;9.210;2022-10-20T06:28:29;10.10;;;6.90;;
18702;SDS011;9481;48.796;9.210;2022-10-20T06:30:59;10.27;;;7.80;;
18702;SDS011;9481;48.796;9.210;2022-10-20T06:33:36;9.27;;;6.80;;
18702;SDS011;9481;48.796;9.210;2022-10-20T06:36:02;9.73;;;7.43;;
18702;SDS011;9481;48.796;9.210;2022-10-20T06:38:28;9.63;;;7.30;;
18702;SDS011;9481;48.796;9.210;2022-10-20T06:40:54;10.33;;;7.23;;
18702;SDS011;9481;48.796;9.210;2022-10-20T06:43:20;8.93;;;6.67;;
18702;SDS011;9481;48.796;9.210;2022-10-20T06:45:52;11.87;;;7.30;;
18702;SDS011;9481;48.796;9.210;2022-10-20T06:48:29;9.43;;;7.03;;
18702;SDS011;9481;48.796;9.210;2022-10-20T06:50:57;7.80;;;6.50;;
18702;SDS011;9481;48.796;9.210;2022-10-20T06:53:25;8.57;;;6.40;;
18702;SDS011;9481;48.796;9.210;2022-10-20T06:56:00;9.03;;;6.77;;
18702;SDS011;9481;48.796;9.210;2022-10-20T06:58:33;10.70;;;7.90;;
18702;SDS011;9481;48.796;9.210;2022-10-20T07:01:02;9.17;;;7.40;;
18702;SDS011;9481;48.796;9.210;2022-10-20T07:03:35;9.97;;;6.77;;
18702;SDS011;9481;48.796;9.210;2022-10-20T07:06:01;8.77;;;6.47;;
18702;SDS011;9481;48.796;9.210;2022-10-20T07:08:29;6.53;;;5.67;;
18702;SDS011;9481;48.796;9.210;2022-10-20T07:11:01;10.40;;;6.30;;
18702;SDS011;9481;48.796;9.210;2022-10-20T07:13:36;7.80;;;6.40;;
18702;SDS011;9481;48.796;9.210;2022-10-20T07:16:03;9.07;;;6.70;;
18702;SDS011;9481;48.796;9.210;2022-10-20T07:18:31;11.43;;;6.57;;
18702;SDS011;9481;48.796;9.210;2022-10-20T07:20:58;8.80;;;6.13;;
18702;SDS011;9481;48.796;9.210;2022-10-20T07:23:26;8.37;;;6.13;;
18702;SDS011;9481;48.796;9.210;2022-10-20T07:26:04;7.67;;;5.80;;
18702;SDS011;9481;48.796;9.210;2022-10-20T07:28:33;7.23;;;6.17;;
18702;SDS011;9481;48.796;9.210;2022-10-20T07:31:03;8.67;;;6.97;;
18702;SDS011;9481;48.796;9.210;2022-10-20T07:33:33;9.90;;;7.60;;
18702;SDS011;9481;48.796;9.210;2022-10-20T07:35:59;10.10;;;7.93;;
18702;SDS011;9481;48.796;9.210;2022-10-20T07:38:25;11.33;;;7.50;;
18702;SDS011;9481;48.796;9.210;2022-10-20T07:40:51;9.97;;;6.50;;
18702;SDS011;9481;48.796;9.210;2022-10-20T07:43:17;7.40;;;5.90;;
18702;SDS011;9481;48.796;9.210;2022-10-20T07:45:43;9.47;;;7.00;;
18702;SDS011;9481;48.796;9.210;2022-10-20T07:48:09;8.17;;;6.30;;
18702;SDS011;9481;48.796;9.210;2022-10-20T07:50:35;11.50;;;7.40;;
18702;SDS011;9481;48.796;9.210;2022-10-20T07:53:02;8.20;;;6.60;;
18702;SDS011;9481;48.796;9.210;2022-10-20T07:55:30;7.83;;;6.23;;
18702;SDS011;9481;48.796;9.210;2022-10-20T07:57:58;7.87;;;6.00;;
18702;SDS011;9481;48.796;9.210;2022-10-20T08:00:24;6.83;;;5.30;;
18702;SDS011;9481;48.796;9.210;2022-10-20T08:02:50;6.07;;;5.37;;
18702;SDS011;9481;48.796;9.210;2022-10-20T08:05:15;6.77;;;5.23;;
18702;SDS011;9481;48.796;9.210;2022-10-20T08:07:41;5.70;;;5.07;;
18702;SDS011;9481;48.796;9.210;2022-10-20T08:10:07;6.37;;;5.17;;
18702;SDS011;9481;48.796;9.210;2022-10-20T08:12:33;7.30;;;5.97;;
18702;SDS011;9481;48.796;9.210;2022-10-20T08:14:59;9.30;;;8.00;;
18702;SDS011;9481;48.796;9.210;2022-10-20T08:17:25;8.47;;;7.57;;
18702;SDS011;9481;48.796;9.210;2022-10-20T08:19:51;8.10;;;6.87;;
18702;SDS011;9481;48.796;9.210;2022-10-20T08:22:17;7.63;;;6.57;;
18702;SDS011;9481;48.796;9.210;2022-10-20T08:24:44;7.37;;;5.60;;
18702;SDS011;9481;48.796;9.210;2022-10-20T08:27:10;6.37;;;5.70;;
18702;SDS011;9481;48.796;9.210;2022-10-20T08:29:36;5.67;;;4.80;;
18702;SDS011;9481;48.796;9.210;2022-10-20T08:32:03;6.63;;;4.80;;
18702;SDS011;9481;48.796;9.210;2022-10-20T08:34:29;6.50;;;4.50;;
18702;SDS011;9481;48.796;9.210;2022-10-20T08:36:55;7.23;;;4.80;;
18702;SDS011;9481;48.796;9.210;2022-10-20T08:39:21;5.90;;;4.57;;
18702;SDS011;9481;48.796;9.210;2022-10-20T08:41:47;6.13;;;5.23;;
18702;SDS011;9481;48.796;9.210;2022-10-20T08:44:21;7.77;;;5.93;;
18702;SDS011;9481;48.796;9.210;2022-10-20T08:46:55;6.27;;;4.77;;
18702;SDS011;9481;48.796;9.210;2022-10-20T08:49:25;6.83;;;4.73;;
18702;SDS011;9481;48.796;9.210;2022-10-20T08:51:55;6.67;;;4.50;;
18702;SDS011;9481;48.796;9.210;2022-10-20T08:54:22;5.00;;;4.43;;
18702;SDS011;9481;48.796;9.210;2022-10-20T08:56:48;6.83;;;4.73;;
18702;SDS011;9481;48.796;9.210;2022-10-20T09:01:49;6.50;;;4.20;;
18702;SDS011;9481;48.796;9.210;2022-10-20T09:04:20;6.77;;;3.70;;
18702;SDS011;9481;48.796;9.210;2022-10-20T09:06:56;4.90;;;4.40;;
18702;SDS011;9481;48.796;9.210;2022-10-20T09:09:29;5.80;;;4.53;;
18702;SDS011;9481;48.796;9.210;2022-10-20T09:12:00;5.60;;;4.27;;
18702;SDS011;9481;48.796;9.210;2022-10-20T09:14:31;5.33;;;4.43;;
18702;SDS011;9481;48.796;9.210;2022-10-20T09:17:00;6.57;;;4.67;;
18702;SDS011;9481;48.796;9.210;2022-10-20T09:19:27;6.90;;;4.47;;
18702;SDS011;9481;48.796;9.210;2022-10-20T09:21:55;6.27;;;4.63;;
18702;SDS011;9481;48.796;9.210;2022-10-20T09:24:23;5.90;;;4.47;;
18702;SDS011;9481;48.796;9.210;2022-10-20T09:26:54;6.20;;;4.73;;
18702;SDS011;9481;48.796;9.210;2022-10-20T09:29:20;5.07;;;4.43;;
18702;SDS011;9481;48.796;9.210;2022-10-20T09:31:58;6.97;;;4.60;;
18702;SDS011;9481;48.796;9.210;2022-10-20T09:42:06;6.43;;;4.70;;
18702;SDS011;9481;48.796;9.210;2022-10-20T09:44:47;8.90;;;4.70;;
18702;SDS011;9481;48.796;9.210;2022-10-20T09:47:20;6.27;;;4.90;;
18702;SDS011;9481;48.796;9.210;2022-10-20T09:50:07;7.17;;;4.60;;
18702;SDS011;9481;48.796;9.210;2022-10-20T09:52:43;8.67;;;4.50;;
18702;SDS011;9481;48.796;9.210;2022-10-20T09:55:29;7.67;;;4.83;;
18702;SDS011;9481;48.796;9.210;2022-10-20T09:57:58;6.17;;;3.97;;
18702;SDS011;9481;48.796;9.210;2022-10-20T10:00:31;6.10;;;4.17;;
18702;SDS011;9481;48.796;9.210;2022-10-20T10:03:36;5.80;;;4.63;;
18702;SDS011;9481;48.796;9.210;2022-10-20T10:05:59;5.97;;;4.90;;
18702;SDS011;9481;48.796;9.210;2022-10-20T10:08:26;5.87;;;4.50;;
18702;SDS011;9481;48.796;9.210;2022-10-20T10:11:13;5.60;;;4.90;;
18702;SDS011;9481;48.796;9.210;2022-10-20T10:13:43;4.93;;;4.30;;
18702;SDS011;9481;48.796;9.210;2022-10-20T10:16:14;5.67;;;4.40;;
18702;SDS011;9481;48.796;9.210;2022-10-20T10:18:44;5.90;;;4.33;;
18702;SDS011;9481;48.796;9.210;2022-10-20T10:21:19;4.77;;;4.00;;
18702;SDS011;9481;48.796;9.210;2022-10-20T10:24:04;4.83;;;4.40;;
18702;SDS011;9481;48.796;9.210;2022-10-20T10:26:36;6.33;;;4.50;;
18702;SDS011;9481;48.796;9.210;2022-10-20T10:29:17;8.53;;;4.33;;
18702;SDS011;9481;48.796;9.210;2022-10-20T10:31:52;4.73;;;4.20;;
18702;SDS011;9481;48.796;9.210;2022-10-20T10:34:41;5.70;;;4.40;;
18702;SDS011;9481;48.796;9.210;2022-10-20T10:37:22;4.60;;;3.87;;
18702;SDS011;9481;48.796;9.210;2022-10-20T10:39:48;6.23;;;4.70;;
18702;SDS011;9481;48.796;9.210;2022-10-20T10:42:18;6.53;;;4.57;;
18702;SDS011;9481;48.796;9.210;2022-10-20T10:48:29;6.37;;;4.47;;
18702;SDS011;9481;48.796;9.210;2022-10-20T10:51:38;5.20;;;3.93;;
18702;SDS011;9481;48.796;9.210;2022-10-20T10:57:14;4.53;;;3.63;;
18702;SDS011;9481;48.796;9.210;2022-10-20T10:59:59;4.70;;;4.03;;
18702;SDS011;9481;48.796;9.210;2022-10-20T11:02:35;4.27;;;3.80;;
18702;SDS011;9481;48.796;9.210;2022-10-20T11:05:32;5.80;;;4.27;;
18702;SDS011;9481;48.796;9.210;2022-10-20T11:12:27;4.47;;;4.00;;
18702;SDS011;9481;48.796;9.210;2022-10-20T11:18:35;5.50;;;3.80;;
18702;SDS011;9481;48.796;9.210;2022-10-20T11:21:49;4.83;;;3.57;;
18702;SDS011;9481;48.796;9.210;2022-10-20T11:27:48;3.90;;;3.43;;
18702;SDS011;9481;48.796;9.210;2022-10-20T11:30:18;4.17;;;3.60;;
18702;SDS011;9481;48.796;9.210;2022-10-20T11:33:00;4.50;;;3.60;;
18702;SDS011;9481;48.796;9.210;2022-10-20T11:35:39;4.60;;;3.63;;
18702;SDS011;9481;48.796;9.210;2022-10-20T11:41:08;5.70;;;3.40;;
18702;SDS011;9481;48.796;9.210;2022-10-20T11:49:08;4.83;;;3.80;;
18702;SDS011;9481;48.796;9.210;2022-10-20T12:03:51;7.73;;;3.80;;
18702;SDS011;9481;48.796;9.210;2022-10-20T12:15:50;3.70;;;3.40;;
18702;SDS011;9481;48.796;9.210;2022-10-20T12:18:20;5.40;;;3.47;;
18702;SDS011;9481;48.796;9.210;2022-10-20T12:20:54;4.67;;;3.50;;
18702;SDS011;9481;48.796;9.210;2022-10-20T12:37:36;4.53;;;3.63;;
18702;SDS011;9481;48.796;9.210;2022-10-20T12:42:32;5.83;;;3.03;;
18702;SDS011;9481;48.796;9.210;2022-10-20T12:47:46;5.37;;;3.37;;
18702;SDS011;9481;48.796;9.210;2022-10-20T12:50:32;3.40;;;3.07;;
18702;SDS011;9481;48.796;9.210;2022-10-20T12:55:41;4.07;;;3.00;;
18702;SDS011;9481;48.796;9.210;2022-10-20T13:16:38;4.97;;;3.83;;
18702;SDS011;9481;48.796;9.210;2022-10-20T13:19:20;5.07;;;3.50;;
18702;SDS011;9481;48.796;9.210;2022-10-20T13:21:56;3.87;;;3.57;;
18702;SDS011;9481;48.796;9.210;2022-10-20T13:24:27;7.77;;;4.00;;
18702;SDS011;9481;48.796;9.210;2022-10-20T13:27:00;8.20;;;3.70;;
18702;SDS011;9481;48.796;9.210;2022-10-20T13:29:35;5.10;;;3.40;;
18702;SDS011;9481;48.796;9.210;2022-10-20T13:34:57;5.07;;;3.70;;
18702;SDS011;9481;48.796;9.210;2022-10-20T13:37:56;4.00;;;3.60;;
18702;SDS011;9481;48.796;9.210;2022-10-20T13:41:01;6.40;;;3.80;;
18702;SDS011;9481;48.796;9.210;2022-10-20T13:47:20;5.10;;;3.63;;
18702;SDS011;9481;48.796;9.210;2022-10-20T13:49:58;8.30;;;3.97;;
18702;SDS011;9481;48.796;9.210;2022-10-20T13:52:37;5.80;;;3.90;;
18702;SDS011;9481;48.796;9.210;2022-10-20T13:55:13;6.20;;;4.03;;
18702;SDS011;9481;48.796;9.210;2022-10-20T13:58:15;6.03;;;5.10;;
18702;SDS011;9481;48.796;9.210;2022-10-20T14:00:54;7.90;;;6.80;;
18702;SDS011;9481;48.796;9.210;2022-10-20T14:03:25;10.83;;;7.47;;
18702;SDS011;9481;48.796;9.210;2022-10-20T14:05:51;9.10;;;6.17;;
18702;SDS011;9481;48.796;9.210;2022-10-20T14:08:18;7.57;;;5.53;;
18702;SDS011;9481;48.796;9.210;2022-10-20T14:10:52;5.37;;;4.70;;
18702;SDS011;9481;48.796;9.210;2022-10-20T14:13:23;6.10;;;4.43;;
18702;SDS011;9481;48.796;9.210;2022-10-20T14:15:57;7.57;;;4.47;;
18702;SDS011;9481;48.796;9.210;2022-10-20T14:18:26;6.17;;;4.63;;
18702;SDS011;9481;48.796;9.210;2022-10-20T14:21:02;6.40;;;4.50;;
18702;SDS011;9481;48.796;9.210;2022-10-20T14:23:41;4.97;;;4.43;;
18702;SDS011;9481;48.796;9.210;2022-10-20T14:26:12;4.17;;;3.77;;
18702;SDS011;9481;48.796;9.210;2022-10-20T14:28:47;5.83;;;4.10;;
18702;SDS011;9481;48.796;9.210;2022-10-20T14:31:16;5.27;;;4.40;;
18702;SDS011;9481;48.796;9.210;2022-10-20T14:33:47;11.57;;;7.93;;
18702;SDS011;9481;48.796;9.210;2022-10-20T14:36:23;10.00;;;9.00;;
18702;SDS011;9481;48.796;9.210;2022-10-20T14:39:01;11.43;;;8.67;;
18702;SDS011;9481;48.796;9.210;2022-10-20T14:41:34;8.93;;;7.10;;
18702;SDS011;9481;48.796;9.210;2022-10-20T14:44:01;9.33;;;7.63;;
18702;SDS011;9481;48.796;9.210;2022-10-20T14:46:34;12.17;;;8.87;;
18702;SDS011;9481;48.796;9.210;2022-10-20T14:49:15;10.10;;;8.90;;
18702;SDS011;9481;48.796;9.210;2022-10-20T14:52:03;14.70;;;9.03;;
18702;SDS011;9481;48.796;9.210;2022-10-20T14:54:43;11.20;;;8.53;;
18702;SDS011;9481;48.796;9.210;2022-10-20T14:59:53;11.50;;;7.93;;
18702;SDS011;9481;48.796;9.210;2022-10-20T15:05:20;8.53;;;5.87;;
18702;SDS011;9481;48.796;9.210;2022-10-20T15:08:07;6.90;;;5.40;;
18702;SDS011;9481;48.796;9.210;2022-10-20T15:10:41;8.20;;;4.90;;
18702;SDS011;9481;48.796;9.210;2022-10-20T15:13:24;5.10;;;4.37;;
18702;SDS011;9481;48.796;9.210;2022-10-20T15:15:55;6.60;;;4.77;;
18702;SDS011;9481;48.796;9.210;2022-10-20T15:18:24;9.50;;;4.60;;
18702;SDS011;9481;48.796;9.210;2022-10-20T15:20:52;5.57;;;4.50;;
18702;SDS011;9481;48.796;9.210;2022-10-20T15:23:22;8.37;;;4.70;;
18702;SDS011;9481;48.796;9.210;2022-10-20T15:25:56;6.27;;;4.50;;
18702;SDS011;9481;48.796;9.210;2022-10-20T15:28:44;6.37;;;4.97;;
18702;SDS011;9481;48.796;9.210;2022-10-20T15:33:38;7.47;;;5.57;;
18702;SDS011;9481;48.796;9.210;2022-10-20T15:36:14;10.40;;;6.23;;
18702;SDS011;9481;48.796;9.210;2022-10-20T15:38:46;8.93;;;6.47;;
18702;SDS011;9481;48.796;9.210;2022-10-20T15:41:16;9.50;;;7.13;;
18702;SDS011;9481;48.796;9.210;2022-10-20T15:43:45;11.90;;;7.67;;
18702;SDS011;9481;48.796;9.210;2022-10-20T15:46:11;15.17;;;9.40;;
18702;SDS011;9481;48.796;9.210;2022-10-20T15:48:39;15.47;;;9.93;;
18702;SDS011;9481;48.796;9.210;2022-10-20T15:51:11;19.97;;;11.17;;
18702;SDS011;9481;48.796;9.210;2022-10-20T15:53:58;16.47;;;11.47;;
18702;SDS011;9481;48.796;9.210;2022-10-20T15:56:24;16.20;;;10.57;;
18702;SDS011;9481;48.796;9.210;2022-10-20T15:58:50;18.50;;;11.17;;
18702;SDS011;9481;48.796;9.210;2022-10-20T16:01:16;16.53;;;11.80;;
18702;SDS011;9481;48.796;9.210;2022-10-20T16:03:44;17.10;;;10.83;;
18702;SDS011;9481;48.796;9.210;2022-10-20T16:06:12;16.03;;;10.43;;
18702;SDS011;9481;48.796;9.210;2022-10-20T16:08:40;15.10;;;10.30;;
18702;SDS011;9481;48.796;9.210;2022-10-20T16:11:07;12.70;;;9.30;;
18702;SDS011;9481;48.796;9.210;2022-10-20T16:13:34;12.27;;;9.13;;
18702;SDS011;9481;48.796;9.210;2022-10-20T16:16:02;12.33;;;8.10;;
18702;SDS011;9481;48.796;9.210;2022-10-20T16:18:29;11.87;;;8.77;;
18702;SDS011;9481;48.796;9.210;2022-10-20T16:20:58;11.37;;;7.60;;
18702;SDS011;9481;48.796;9.210;2022-10-20T16:23:25;9.90;;;7.47;;
18702;SDS011;9481;48.796;9.210;2022-10-20T16:25:51;9.70;;;7.87;;
18702;SDS011;9481;48.796;9.210;2022-10-20T16:28:17;11.00;;;8.27;;
18702;SDS011;9481;48.796;9.210;2022-10-20T16:30:42;9.33;;;7.10;;
18702;SDS011;9481;48.796;9.210;2022-10-20T16:33:08;12.63;;;6.60;;
18702;SDS011;9481;48.796;9.210;2022-10-20T16:35:39;9.80;;;6.97;;
18702;SDS011;9481;48.796;9.210;2022-10-20T16:38:06;14.90;;;8.90;;
18702;SDS011;9481;48.796;9.210;2022-10-20T16:40:32;14.00;;;8.60;;
18702;SDS011;9481;48.796;9.210;2022-10-20T16:42:58;14.03;;;8.80;;
18702;SDS011;9481;48.796;9.210;2022-10-20T16:45:25;11.70;;;8.80;;
18702;SDS011;9481;48.796;9.210;2022-10-20T16:47:51;10.53;;;7.83;;
18702;SDS011;9481;48.796;9.210;2022-10-20T16:50:16;9.27;;;7.30;;
18702;SDS011;9481;48.796;9.210;2022-10-20T16:52:42;10.77;;;8.20;;
18702;SDS011;9481;48.796;9.210;2022-10-20T16:55:08;13.33;;;7.67;;
18702;SDS011;9481;48.796;9.210;2022-10-20T16:57:34;10.40;;;7.60;;
18702;SDS011;9481;48.796;9.210;2022-10-20T17:00:07;10.63;;;6.93;;
18702;SDS011;9481;48.796;9.210;2022-10-20T17:02:34;12.33;;;7.67;;
18702;SDS011;9481;48.796;9.210;2022-10-20T17:05:01;10.63;;;7.20;;
18702;SDS011;9481;48.796;9.210;2022-10-20T17:07:27;10.63;;;6.93;;
18702;SDS011;9481;48.796;9.210;2022-10-20T17:09:53;10.87;;;8.00;;
18702;SDS011;9481;48.796;9.210;2022-10-20T17:12:18;16.33;;;9.23;;
18702;SDS011;9481;48.796;9.210;2022-10-20T17:14:44;10.77;;;7.67;;
18702;SDS011;9481;48.796;9.210;2022-10-20T17:17:10;12.83;;;7.87;;
18702;SDS011;9481;48.796;9.210;2022-10-20T17:19:35;12.63;;;7.67;;
18702;SDS011;9481;48.796;9.210;2022-10-20T17:22:01;14.60;;;8.60;;
18702;SDS011;9481;48.796;9.210;2022-10-20T17:24:27;14.07;;;8.80;;
18702;SDS011;9481;48.796;9.210;2022-10-20T17:26:52;10.40;;;7.77;;
18702;SDS011;9481;48.796;9.210;2022-10-20T17:29:18;13.47;;;8.83;;
18702;SDS011;9481;48.796;9.210;2022-10-20T17:31:44;14.93;;;8.03;;